createdAt,value
2022-12-16T00:01:08.593Z,100308.53
2022-12-16T00:03:35.978Z,100317.38
2022-12-16T00:06:04.512Z,100312.13
2022-12-16T00:08:36.182Z,100319.09
2022-12-16T00:11:03.604Z,100320.78
2022-12-16T00:13:32.236Z,100325.09
2022-12-16T00:15:59.927Z,100316.16
2022-12-16T00:18:26.386Z,100316.00
2022-12-16T00:20:53.958Z,100312.31
2022-12-16T00:23:22.110Z,100309.34
2022-12-16T00:25:48.999Z,100314.25
2022-12-16T00:28:17.345Z,100306.94
2022-12-16T00:30:44.736Z,100303.06
2022-12-16T00:33:11.332Z,100306.28
2022-12-16T00:35:40.518Z,100307.63
2022-12-16T00:38:10.858Z,100311.63
2022-12-16T00:40:37.319Z,100309.50
2022-12-16T00:43:03.911Z,100310.06
2022-12-16T00:45:31.247Z,100301.00
2022-12-16T00:47:57.957Z,100298.00
2022-12-16T00:50:24.996Z,100313.53
2022-12-16T00:52:51.819Z,100310.66
2022-12-16T00:55:18.831Z,100312.09
2022-12-16T00:57:45.738Z,100310.91
2022-12-16T01:00:15.487Z,100315.84
2022-12-16T01:02:43.601Z,100324.22
2022-12-16T01:05:12.159Z,100317.59
2022-12-16T01:07:38.951Z,100311.06
2022-12-16T01:10:06.892Z,100314.09
2022-12-16T01:12:35.402Z,100318.00
2022-12-16T01:15:03.333Z,100316.63
2022-12-16T01:17:29.778Z,100319.72
2022-12-16T01:19:56.150Z,100331.50
2022-12-16T01:22:22.666Z,100338.09
2022-12-16T01:24:49.187Z,100331.66
2022-12-16T01:27:16.468Z,100328.53
2022-12-16T01:29:43.099Z,100329.13
2022-12-16T01:32:12.565Z,100331.22
2022-12-16T01:34:39.287Z,100334.50
2022-12-16T01:37:06.988Z,100339.41
2022-12-16T01:39:33.408Z,100335.56
2022-12-16T01:41:59.883Z,100338.78
2022-12-16T01:44:26.956Z,100344.63
2022-12-16T01:47:00.624Z,100346.03
2022-12-16T01:49:35.851Z,100346.59
2022-12-16T01:52:07.658Z,100348.19
2022-12-16T01:54:39.679Z,100348.00
2022-12-16T01:57:12.158Z,100346.00
2022-12-16T01:59:41.572Z,100342.34
2022-12-16T02:02:08.235Z,100350.16
2022-12-16T02:04:35.377Z,100351.84
2022-12-16T02:07:01.933Z,100349.13
2022-12-16T02:09:28.316Z,100350.81
2022-12-16T02:12:12.778Z,100351.56
2022-12-16T02:15:00.531Z,100350.63
2022-12-16T02:17:44.054Z,100350.63
2022-12-16T02:20:32.157Z,100355.81
2022-12-16T02:23:23.504Z,100347.91
2022-12-16T02:26:17.140Z,100348.75
2022-12-16T02:29:17.426Z,100343.47
2022-12-16T02:32:01.529Z,100345.16
2022-12-16T02:34:44.874Z,100341.69
2022-12-16T02:37:30.849Z,100341.59
2022-12-16T02:40:01.202Z,100340.66
2022-12-16T02:42:31.804Z,100350.28
2022-12-16T02:45:06.979Z,100352.97
2022-12-16T02:47:33.317Z,100355.69
2022-12-16T02:49:59.809Z,100356.66
2022-12-16T02:52:30.294Z,100370.66
2022-12-16T02:55:01.741Z,100372.38
2022-12-16T02:57:48.364Z,100376.78
2022-12-16T03:00:25.254Z,100369.63
2022-12-16T03:03:02.040Z,100376.59
2022-12-16T03:05:33.433Z,100372.19
2022-12-16T03:08:07.575Z,100380.09
2022-12-16T03:10:39.176Z,100376.69
2022-12-16T03:13:08.574Z,100368.88
2022-12-16T03:15:36.338Z,100373.41
2022-12-16T03:18:06.012Z,100374.53
2022-12-16T03:20:42.216Z,100379.22
2022-12-16T03:23:15.435Z,100380.53
2022-12-16T03:25:45.396Z,100380.91
2022-12-16T03:28:39.752Z,100379.69
2022-12-16T03:31:18.362Z,100374.09
2022-12-16T03:34:04.570Z,100380.84
2022-12-16T03:36:34.862Z,100376.88
2022-12-16T03:39:02.943Z,100384.38
2022-12-16T03:41:31.110Z,100397.97
2022-12-16T03:43:57.482Z,100396.66
2022-12-16T03:46:23.974Z,100396.13
2022-12-16T03:48:51.475Z,100393.88
2022-12-16T03:51:19.454Z,100394.28
2022-12-16T03:53:46.691Z,100400.75
2022-12-16T03:56:13.665Z,100402.78
2022-12-16T03:58:40.422Z,100408.41
2022-12-16T04:01:09.536Z,100401.59
2022-12-16T04:03:37.240Z,100399.41
2022-12-16T04:06:04.274Z,100406.69
2022-12-16T04:08:30.618Z,100411.28
2022-12-16T04:11:15.336Z,100418.56
2022-12-16T04:14:00.222Z,100422.28
2022-12-16T04:16:47.426Z,100418.03
2022-12-16T04:19:44.538Z,100407.94
2022-12-16T04:22:36.406Z,100407.31
2022-12-16T04:25:09.055Z,100406.75
2022-12-16T04:27:35.404Z,100414.94
2022-12-16T04:30:19.892Z,100415.13
2022-12-16T04:33:05.843Z,100417.13
2022-12-16T04:35:51.112Z,100420.00
2022-12-16T04:38:35.850Z,100421.88
2022-12-16T04:41:20.666Z,100419.47
2022-12-16T04:44:05.570Z,100425.75
2022-12-16T04:46:50.524Z,100430.28
2022-12-16T04:49:35.226Z,100438.31
2022-12-16T04:52:20.133Z,100434.06
2022-12-16T04:55:04.900Z,100438.59
2022-12-16T04:57:49.566Z,100438.66
2022-12-16T05:00:34.905Z,100443.13
2022-12-16T05:03:19.675Z,100439.72
2022-12-16T05:06:04.826Z,100439.88
2022-12-16T05:08:50.040Z,100448.69
2022-12-16T05:11:34.774Z,100452.38
2022-12-16T05:14:19.523Z,100452.56
2022-12-16T05:17:04.283Z,100457.97
2022-12-16T05:19:49.034Z,100455.50
2022-12-16T05:22:33.750Z,100461.81
2022-12-16T05:25:18.928Z,100460.19
2022-12-16T05:28:03.703Z,100464.75
2022-12-16T05:30:48.643Z,100461.44
2022-12-16T05:33:34.020Z,100465.13
2022-12-16T05:36:19.379Z,100471.38
2022-12-16T05:39:21.004Z,100474.06
2022-12-16T05:42:06.137Z,100475.94
2022-12-16T05:44:51.634Z,100487.31
2022-12-16T05:47:36.396Z,100481.34
2022-12-16T05:50:21.734Z,100482.19
2022-12-16T05:53:11.619Z,100490.94
2022-12-16T05:55:56.905Z,100493.56
2022-12-16T05:58:42.637Z,100490.19
2022-12-16T06:01:27.966Z,100492.81
2022-12-16T06:04:17.548Z,100491.19
2022-12-16T06:07:03.559Z,100490.47
2022-12-16T06:09:54.723Z,100502.06
2022-12-16T06:12:41.585Z,100496.94
2022-12-16T06:15:26.881Z,100502.31
2022-12-16T06:18:11.730Z,100506.72
2022-12-16T06:20:56.458Z,100512.97
2022-12-16T06:23:41.345Z,100510.44
2022-12-16T06:26:26.738Z,100509.56
2022-12-16T06:29:12.100Z,100511.44
2022-12-16T06:31:56.898Z,100513.25
2022-12-16T06:34:41.880Z,100523.91
2022-12-16T06:37:26.790Z,100530.88
2022-12-16T06:40:11.441Z,100537.13
2022-12-16T06:43:00.517Z,100545.13
2022-12-16T06:45:46.311Z,100542.59
2022-12-16T06:48:30.938Z,100550.53
2022-12-16T06:51:15.744Z,100551.50
2022-12-16T06:54:00.473Z,100548.97
2022-12-16T06:56:45.368Z,100559.53
2022-12-16T06:59:30.126Z,100560.47
2022-12-16T07:02:15.071Z,100559.59
2022-12-16T07:05:00.155Z,100566.69
2022-12-16T07:07:44.914Z,100564.13
2022-12-16T07:10:30.822Z,100576.38
2022-12-16T07:13:17.958Z,100579.16
2022-12-16T07:16:05.047Z,100580.13
2022-12-16T07:18:59.525Z,100582.03
2022-12-16T07:21:44.384Z,100591.75
2022-12-16T07:24:29.127Z,100602.34
2022-12-16T07:27:13.909Z,100609.44
2022-12-16T07:29:58.630Z,100614.81
2022-12-16T07:32:43.321Z,100613.09
2022-12-16T07:35:27.962Z,100619.25
2022-12-16T07:38:12.640Z,100636.75
2022-12-16T07:40:58.016Z,100629.81
2022-12-16T07:43:43.072Z,100645.53
2022-12-16T07:46:28.111Z,100648.97
2022-12-16T07:49:12.786Z,100647.25
2022-12-16T07:51:57.640Z,100647.25
2022-12-16T07:54:42.403Z,100668.06
2022-12-16T07:57:27.679Z,100662.75
2022-12-16T08:00:12.390Z,100663.47
2022-12-16T08:02:57.297Z,100664.03
2022-12-16T08:05:42.610Z,100676.13
2022-12-16T08:08:27.379Z,100678.47
2022-12-16T08:11:12.282Z,100675.50
2022-12-16T08:13:57.078Z,100679.63
2022-12-16T08:16:41.978Z,100687.94
2022-12-16T08:19:26.669Z,100685.75
2022-12-16T08:22:11.363Z,100684.50
2022-12-16T08:24:56.254Z,100687.47
2022-12-16T08:27:41.316Z,100691.31
2022-12-16T08:30:27.322Z,100695.13
2022-12-16T08:33:18.967Z,100702.34
2022-12-16T08:36:05.344Z,100699.94
2022-12-16T08:38:50.645Z,100711.56
2022-12-16T08:41:35.994Z,100712.69
2022-12-16T08:44:20.800Z,100716.31
2022-12-16T08:47:10.012Z,100722.66
2022-12-16T08:49:57.828Z,100726.31
2022-12-16T08:52:46.711Z,100729.88
2022-12-16T08:55:31.610Z,100727.47
2022-12-16T08:58:16.384Z,100732.03
2022-12-16T09:01:06.623Z,100741.94
2022-12-16T09:03:52.269Z,100746.47
2022-12-16T09:06:40.687Z,100739.72
2022-12-16T09:09:26.607Z,100755.88
2022-12-16T09:12:11.382Z,100751.78
2022-12-16T09:14:56.190Z,100758.28
2022-12-16T09:17:41.502Z,100764.06
2022-12-16T09:20:26.753Z,100762.81
2022-12-16T09:23:11.618Z,100772.00
2022-12-16T09:25:56.438Z,100770.72
2022-12-16T09:28:41.232Z,100771.16
2022-12-16T09:31:25.989Z,100776.00
2022-12-16T09:34:10.827Z,100777.34
2022-12-16T09:36:55.590Z,100782.13
2022-12-16T09:39:40.768Z,100789.59
2022-12-16T09:43:04.008Z,100791.69
2022-12-16T09:46:15.444Z,100791.25
2022-12-16T09:49:20.207Z,100799.59
2022-12-16T09:52:06.503Z,100799.25
2022-12-16T09:54:54.858Z,100805.84
2022-12-16T09:57:43.278Z,100796.66
2022-12-16T10:00:40.678Z,100808.56
2022-12-16T10:03:35.478Z,100814.25
2022-12-16T10:06:50.382Z,100805.75
2022-12-16T10:10:10.031Z,100799.00
2022-12-16T10:13:27.056Z,100812.53
2022-12-16T10:16:26.568Z,100808.47
2022-12-16T10:19:25.695Z,100814.13
2022-12-16T10:22:20.467Z,100817.16
2022-12-16T10:25:25.232Z,100816.63
2022-12-16T10:28:21.308Z,100829.25
2022-12-16T10:31:06.768Z,100815.69
2022-12-16T10:33:51.859Z,100823.97
2022-12-16T10:36:41.138Z,100825.31
2022-12-16T10:39:56.846Z,100825.75
2022-12-16T10:42:41.613Z,100815.66
2022-12-16T10:45:42.556Z,100818.88
2022-12-16T10:48:29.503Z,100819.44
2022-12-16T10:51:14.510Z,100821.88
2022-12-16T10:53:59.397Z,100819.97
2022-12-16T10:57:01.160Z,100819.97
2022-12-16T10:59:55.070Z,100824.31
2022-12-16T11:02:43.336Z,100827.81
2022-12-16T11:05:47.140Z,100827.91
2022-12-16T11:08:46.731Z,100830.53
2022-12-16T11:11:54.093Z,100826.13
2022-12-16T11:14:42.088Z,100823.38
2022-12-16T11:17:45.246Z,100822.31
2022-12-16T11:20:48.489Z,100823.84
2022-12-16T11:23:43.996Z,100821.84
2022-12-16T11:26:37.932Z,100820.78
2022-12-16T11:29:36.964Z,100826.72
2022-12-16T11:32:25.266Z,100830.88
2022-12-16T11:35:14.755Z,100828.81
2022-12-16T11:38:01.579Z,100822.38
2022-12-16T11:40:49.146Z,100821.22
2022-12-16T11:43:53.692Z,100821.97
2022-12-16T11:46:47.058Z,100822.72
2022-12-16T11:49:51.717Z,100821.78
2022-12-16T11:52:40.677Z,100829.50
2022-12-16T11:56:15.648Z,100827.59
2022-12-16T11:59:08.468Z,100822.22
2022-12-16T12:02:13.610Z,100831.84
2022-12-16T12:04:58.695Z,100834.28
2022-12-16T12:08:08.263Z,100837.56
2022-12-16T12:11:08.873Z,100837.56
2022-12-16T12:14:10.438Z,100842.78
2022-12-16T12:17:10.846Z,100848.06
2022-12-16T12:20:19.385Z,100848.84
2022-12-16T12:23:05.247Z,100846.19
2022-12-16T12:26:09.273Z,100853.94
2022-12-16T12:29:03.765Z,100847.59
2022-12-16T12:32:15.557Z,100847.38
2022-12-16T12:35:59.175Z,100845.47
2022-12-16T12:38:58.709Z,100848.75
2022-12-16T12:41:47.164Z,100852.16
2022-12-16T12:44:51.104Z,100858.22
2022-12-16T12:47:38.396Z,100860.75
2022-12-16T12:50:26.822Z,100865.88
2022-12-16T12:53:42.571Z,100854.22
2022-12-16T12:56:27.323Z,100857.59
2022-12-16T12:59:18.019Z,100856.53
2022-12-16T13:02:05.125Z,100854.66
2022-12-16T13:04:51.749Z,100851.91
2022-12-16T13:07:37.138Z,100855.41
2022-12-16T13:10:44.078Z,100857.84
2022-12-16T13:13:48.944Z,100865.56
2022-12-16T13:17:02.989Z,100866.53
2022-12-16T13:19:47.848Z,100868.34
2022-12-16T13:22:53.472Z,100872.03
2022-12-16T13:26:10.457Z,100868.53
2022-12-16T13:28:59.205Z,100879.22
2022-12-16T13:31:46.691Z,100878.47
2022-12-16T13:34:34.864Z,100882.09
2022-12-16T13:37:28.451Z,100889.28
2022-12-16T13:40:25.204Z,100887.69
2022-12-16T13:43:12.588Z,100884.28
2022-12-16T13:46:15.820Z,100890.63
2022-12-16T13:49:01.597Z,100896.03
2022-12-16T13:51:55.628Z,100899.63
2022-12-16T13:55:10.433Z,100906.81
2022-12-16T13:58:01.917Z,100907.75
2022-12-16T14:00:48.400Z,100909.66
2022-12-16T14:03:57.906Z,100908.81
2022-12-16T14:06:46.153Z,100912.41
2022-12-16T14:09:48.232Z,100921.28
2022-12-16T14:12:49.215Z,100924.06
2022-12-16T14:15:45.980Z,100921.50
2022-12-16T14:19:13.081Z,100926.03
2022-12-16T14:22:35.195Z,100935.88
2022-12-16T14:25:33.257Z,100935.97
2022-12-16T14:28:19.543Z,100952.06
2022-12-16T14:31:24.367Z,100955.75
2022-12-16T14:34:12.955Z,100961.25
2022-12-16T14:36:58.812Z,100967.56
2022-12-16T14:39:49.148Z,100965.97
2022-12-16T14:42:38.144Z,100981.09
2022-12-16T14:45:39.098Z,100980.44
2022-12-16T14:48:44.459Z,100979.75
2022-12-16T14:51:41.531Z,100979.97
2022-12-16T14:54:45.927Z,100990.72
2022-12-16T14:57:53.301Z,100994.50
2022-12-16T15:00:41.061Z,100992.16
2022-12-16T15:03:26.304Z,101001.22
2022-12-16T15:06:12.248Z,101008.59
2022-12-16T15:09:09.448Z,101009.81
2022-12-16T15:11:55.210Z,101011.13
2022-12-16T15:14:48.562Z,101008.84
2022-12-16T15:18:00.496Z,101011.88
2022-12-16T15:20:48.507Z,101022.78
2022-12-16T15:23:44.107Z,101022.41
2022-12-16T15:26:37.233Z,101029.75
2022-12-16T15:29:22.432Z,101033.72
2022-12-16T15:32:10.546Z,101042.75
2022-12-16T15:35:05.906Z,101044.78
2022-12-16T15:38:04.179Z,101052.97
2022-12-16T15:40:51.820Z,101058.56
2022-12-16T15:43:53.629Z,101065.00
2022-12-16T15:46:43.448Z,101062.72
2022-12-16T15:49:49.354Z,101064.00
2022-12-16T15:52:43.470Z,101064.34
2022-12-16T15:55:49.324Z,101061.19
2022-12-16T15:58:47.324Z,101066.81
2022-12-16T16:01:35.509Z,101071.59
2022-12-16T16:04:20.839Z,101076.34
2022-12-16T16:07:11.122Z,101078.41
2022-12-16T16:09:58.404Z,101084.00
2022-12-16T16:12:44.497Z,101084.44
2022-12-16T16:15:31.871Z,101085.50
2022-12-16T16:18:19.641Z,101084.91
2022-12-16T16:21:05.021Z,101097.41
2022-12-16T16:23:50.276Z,101097.59
2022-12-16T16:26:38.585Z,101107.44
2022-12-16T16:29:24.004Z,101106.75
2022-12-16T16:32:09.255Z,101102.59
2022-12-16T16:34:54.089Z,101104.50
2022-12-16T16:37:40.040Z,101119.66
2022-12-16T16:40:43.872Z,101115.47
2022-12-16T16:43:28.820Z,101120.13
2022-12-16T16:46:14.349Z,101125.72
2022-12-16T16:48:59.950Z,101122.47
2022-12-16T16:51:45.861Z,101120.94
2022-12-16T16:54:30.697Z,101126.25
2022-12-16T16:57:18.641Z,101137.03
2022-12-16T17:00:07.983Z,101135.56
2022-12-16T17:02:52.850Z,101138.50
2022-12-16T17:05:37.977Z,101136.94
2022-12-16T17:08:23.133Z,101142.44
2022-12-16T17:11:07.978Z,101139.19
2022-12-16T17:13:53.063Z,101151.66
2022-12-16T17:16:37.895Z,101161.56
2022-12-16T17:19:22.686Z,101164.41
2022-12-16T17:22:07.393Z,101165.50
2022-12-16T17:24:54.280Z,101165.66
2022-12-16T17:27:42.566Z,101167.66
2022-12-16T17:30:47.686Z,101185.31
2022-12-16T17:33:34.495Z,101184.63
2022-12-16T17:36:19.941Z,101192.72
2022-12-16T17:39:05.247Z,101192.88
2022-12-16T17:41:52.190Z,101203.56
2022-12-16T17:44:37.545Z,101197.41
2022-12-16T17:47:22.808Z,101204.59
2022-12-16T17:50:27.501Z,101209.22
2022-12-16T17:53:17.062Z,101205.94
2022-12-16T17:56:02.619Z,101206.16
2022-12-16T17:58:52.476Z,101218.59
2022-12-16T18:01:37.867Z,101221.44
2022-12-16T18:04:23.591Z,101220.75
2022-12-16T18:07:08.455Z,101232.16
2022-12-16T18:09:53.846Z,101237.53
2022-12-16T18:12:39.590Z,101243.78
2022-12-16T18:15:24.392Z,101238.50
2022-12-16T18:18:09.724Z,101236.03
2022-12-16T18:20:55.092Z,101237.06
2022-12-16T18:23:40.042Z,101246.03
2022-12-16T18:26:27.280Z,101247.06
2022-12-16T18:29:12.112Z,101242.88
2022-12-16T18:31:57.603Z,101249.19
2022-12-16T18:34:42.453Z,101244.13
2022-12-16T18:37:30.526Z,101244.25
2022-12-16T18:40:17.138Z,101259.25
2022-12-16T18:43:05.197Z,101253.31
2022-12-16T18:45:50.209Z,101246.41
2022-12-16T18:48:35.292Z,101250.97
2022-12-16T18:51:20.172Z,101259.00
2022-12-16T18:54:08.676Z,101251.16
2022-12-16T18:56:53.326Z,101254.00
2022-12-16T18:59:38.328Z,101262.88
2022-12-16T19:02:23.154Z,101269.16
2022-12-16T19:05:08.242Z,101274.59
2022-12-16T19:07:53.099Z,101278.22
2022-12-16T19:10:37.852Z,101276.63
2022-12-16T19:13:22.858Z,101283.84
2022-12-16T19:16:15.298Z,101285.69
2022-12-16T19:19:00.847Z,101286.78
2022-12-16T19:24:51.261Z,101287.91
2022-12-16T19:27:37.043Z,101301.09
2022-12-16T19:30:22.822Z,101301.22
2022-12-16T19:33:07.652Z,101305.63
2022-12-16T19:35:52.482Z,101305.75
2022-12-16T19:38:39.111Z,101307.56
2022-12-16T19:41:24.006Z,101293.75
2022-12-16T19:44:08.748Z,101305.22
2022-12-16T19:46:56.234Z,101303.59
2022-12-16T19:49:44.387Z,101308.97
2022-12-16T19:52:29.905Z,101319.50
2022-12-16T19:55:17.492Z,101320.50
2022-12-16T19:58:10.121Z,101317.13
2022-12-16T20:00:54.962Z,101324.22
2022-12-16T20:03:41.909Z,101330.38
2022-12-16T20:06:28.041Z,101331.34
2022-12-16T20:09:14.398Z,101331.41
2022-12-16T20:12:11.898Z,101331.47
2022-12-16T20:14:56.677Z,101335.94
2022-12-16T20:17:42.053Z,101341.22
2022-12-16T20:20:27.323Z,101336.94
2022-12-16T20:23:14.483Z,101340.50
2022-12-16T20:25:59.241Z,101338.75
2022-12-16T20:28:43.935Z,101332.72
2022-12-16T20:31:28.829Z,101339.81
2022-12-16T20:34:15.087Z,101350.34
2022-12-16T20:37:00.856Z,101349.63
2022-12-16T20:39:51.151Z,101347.00
2022-12-16T20:42:40.970Z,101344.50
2022-12-16T20:45:26.213Z,101349.84
2022-12-16T20:48:12.548Z,101356.94
2022-12-16T20:50:57.199Z,101356.19
2022-12-16T20:53:42.729Z,101356.28
2022-12-16T20:56:27.767Z,101360.66
2022-12-16T20:59:12.605Z,101363.38
2022-12-16T21:02:22.192Z,101369.59
2022-12-16T21:05:02.490Z,101372.25
2022-12-16T21:07:47.505Z,101375.84
2022-12-16T21:10:32.901Z,101374.19
2022-12-16T21:13:28.429Z,101375.16
2022-12-16T21:14:28.211Z,101287.78
2022-12-16T21:16:16.210Z,101383.94
2022-12-16T21:19:01.518Z,101376.19
2022-12-16T21:21:46.410Z,101386.72
2022-12-16T21:24:31.282Z,101382.44
2022-12-16T21:27:16.635Z,101391.22
2022-12-16T21:30:01.575Z,101402.59
2022-12-16T21:32:59.907Z,101403.53
2022-12-16T21:35:44.594Z,101414.97
2022-12-16T21:38:30.526Z,101411.56
2022-12-16T21:41:16.588Z,101413.44
2022-12-16T21:44:01.507Z,101416.09
2022-12-16T21:46:46.343Z,101417.88
2022-12-16T21:49:31.106Z,101421.41
2022-12-16T21:52:16.011Z,101413.56
2022-12-16T21:55:00.851Z,101412.72
2022-12-16T21:57:45.801Z,101425.84
2022-12-16T22:00:31.519Z,101425.88
2022-12-16T22:03:16.294Z,101431.97
2022-12-16T22:06:01.113Z,101420.69
2022-12-16T22:08:46.147Z,101444.38
2022-12-16T22:11:32.444Z,101442.78
2022-12-16T22:14:25.235Z,101445.50
2022-12-16T22:17:09.871Z,101452.56
2022-12-16T22:19:56.187Z,101461.38
2022-12-16T22:22:41.874Z,101468.50
2022-12-16T22:25:27.103Z,101475.66
2022-12-16T22:28:11.834Z,101469.63
2022-12-16T22:30:56.823Z,101479.38
2022-12-16T22:33:41.906Z,101488.19
2022-12-16T22:36:27.661Z,101480.41
2022-12-16T22:39:15.418Z,101493.63
2022-12-16T22:42:00.974Z,101491.97
2022-12-16T22:44:45.624Z,101491.13
2022-12-16T22:47:30.581Z,101490.28
2022-12-16T22:50:15.482Z,101486.78
2022-12-16T22:53:00.484Z,101496.31
2022-12-16T22:55:45.601Z,101508.47
2022-12-16T22:58:31.418Z,101505.72
2022-12-16T23:01:16.365Z,101509.91
2022-12-16T23:04:01.317Z,101513.16
2022-12-16T23:06:46.274Z,101513.84
2022-12-16T23:09:31.076Z,101522.31
2022-12-16T23:12:16.380Z,101513.38
2022-12-16T23:15:01.241Z,101517.44
2022-12-16T23:17:46.059Z,101514.63
2022-12-16T23:20:31.007Z,101509.13
2022-12-16T23:23:15.986Z,101514.13
2022-12-16T23:26:00.956Z,101520.91
2022-12-16T23:28:45.608Z,101529.44
2022-12-16T23:31:30.692Z,101530.94
2022-12-16T23:34:16.206Z,101536.03
2022-12-16T23:37:01.258Z,101542.00
2022-12-16T23:39:46.153Z,101545.31
2022-12-16T23:42:30.914Z,101539.97
2022-12-16T23:45:15.807Z,101531.09
2022-12-16T23:48:00.689Z,101537.94
2022-12-16T23:50:45.492Z,101529.94
2022-12-16T23:53:30.851Z,101536.84
2022-12-16T23:56:17.627Z,101537.63
2022-12-16T23:59:03.498Z,101538.41
